Wednesday, October 18, 2017, 6:08 PM EDT
Back to Local

KHYA, Hyannis Barnstable Boardmn

Location: West Yarmouth, MA, United States Lat: 41.667
Local Time: 6:08 PM EDT (22:08 GMT) Lon: -70.267
Time Zone: US/Eastern Elev: 52 ft

Show me the last for .
Show Coded

Time T Td Feel RH Dir Speed Gust Alt SLP Vis Weather Sky Remarks
2017-10-18 16:56 66 53 - 63 240° 7 - 30.22 30.22 10 CLR None
2017-10-18 15:56 68 53 - 58 230° 9 - 30.22 30.22 10 CLR None
2017-10-18 14:56 69 49 - 48 30° 7 - 30.21 30.21 10 CLR None
2017-10-18 13:56 71 49 76 45 Variable 7 - 30.21 30.21 10 CLR 6-hr Min Temp (2pm): 55.0°F
6-hr Max Temp (2pm): 71.1°F
2017-10-18 12:56 69 49 - 48 240° 6 - 30.23 30.24 10 CLR None
2017-10-18 11:56 66 47 - 50 240° 7 - 30.25 30.26 10 CLR None
2017-10-18 10:56 65 45 - 48 290° 8 - 30.26 30.26 10 CLR None
2017-10-18 09:56 63 46 - 53 240° 10 - 30.25 30.26 10 CLR None
2017-10-18 08:56 59 46 - 62 260° 9 - 30.25 30.25 10 CLR None
2017-10-18 07:56 55 44 - 66 250° 9 - 30.24 30.24 10 CLR 6-hr Min Temp (8am): 42.1°F
6-hr Max Temp (8am): 55.0°F
2017-10-18 06:56 51 41 - 68 220° 8 - 30.23 30.23 10 CLR None
2017-10-18 05:56 52 43 - 71 230° 10 - 30.23 30.23 10 CLR None
2017-10-18 04:56 51 44 - 76 240° 10 - 30.22 30.22 10 CLR None
2017-10-18 03:56 49 44 45 83 230° 9 - 30.22 30.22 10 CLR None
2017-10-18 02:56 43 41 - 92 - Calm - 30.23 30.23 10 CLR None
2017-10-18 01:56 49 42 48 77 270° 3 - 30.24 30.24 10 CLR 6-hr Min Temp (2am): 41.0°F
6-hr Max Temp (2am): 51.1°F
2017-10-18 00:56 50 43 47 76 240° 8 - 30.24 30.24 10 CLR 24-hr Min Temp (1am): 41.0°F
24-hr Max Temp (1am): 55.0°F
2017-10-17 23:56 50 43 46 76 230° 9 - 30.25 30.25 10 CLR None
2017-10-17 22:56 42 39 - 88 - Calm - 30.26 30.26 10 CLR None
2017-10-17 21:56 44 40 43 85 220° 3 - 30.26 30.26 10 CLR None
2017-10-17 20:56 42 38 - 85 - Calm - 30.26 30.26 10 CLR None
2017-10-17 19:56 45 39 42 79 210° 6 - 30.24 30.24 10 CLR 6-hr Min Temp (8pm): 44.1°F
6-hr Max Temp (8pm): 55.0°F
2017-10-17 18:56 45 39 - 79 - Calm - 30.25 30.25 10 CLR None

Support USWX by starting your Amazon purchase here.